createdAt,value
2018-08-07T00:01:15.724Z,96280.55
2018-08-07T00:03:44.049Z,96282.91
2018-08-07T00:06:11.394Z,96285.17
2018-08-07T00:08:38.668Z,96277.12
2018-08-07T00:11:05.951Z,96276.69
2018-08-07T00:13:33.303Z,96271.17
2018-08-07T00:16:00.753Z,96278.15
2018-08-07T00:18:28.075Z,96276.73
2018-08-07T00:20:55.393Z,96284.17
2018-08-07T00:23:22.716Z,96281.06
2018-08-07T00:25:50.060Z,96279.08
2018-08-07T00:28:17.371Z,96272.50
2018-08-07T00:30:44.684Z,96274.19
2018-08-07T00:33:12.022Z,96268.63
2018-08-07T00:35:39.313Z,96270.98
2018-08-07T00:38:06.664Z,96264.83
2018-08-07T00:40:33.929Z,96262.15
2018-08-07T00:43:01.276Z,96257.98
2018-08-07T00:45:28.573Z,96265.58
2018-08-07T00:47:55.844Z,96263.93
2018-08-07T00:50:23.190Z,96256.83
2018-08-07T00:52:51.169Z,96253.33
2018-08-07T00:55:19.126Z,96240.72
2018-08-07T00:57:47.000Z,96246.36
2018-08-07T01:00:14.607Z,96247.77
2018-08-07T01:02:41.902Z,96245.55
2018-08-07T01:05:11.948Z,96247.83
2018-08-07T01:07:39.459Z,96239.71
2018-08-07T01:10:08.834Z,96241.53
2018-08-07T01:12:36.582Z,96241.09
2018-08-07T01:15:05.714Z,96238.42
2018-08-07T01:17:33.052Z,96239.58
2018-08-07T01:20:00.553Z,96246.50
2018-08-07T01:22:27.816Z,96243.39
2018-08-07T01:24:55.140Z,96241.35
2018-08-07T01:27:22.486Z,96239.13
2018-08-07T01:29:49.760Z,96225.38
2018-08-07T01:32:17.053Z,96233.89
2018-08-07T01:34:44.378Z,96237.13
2018-08-07T01:37:11.746Z,96238.45
2018-08-07T01:39:39.033Z,96235.71
2018-08-07T01:42:06.354Z,96233.19
2018-08-07T01:44:33.677Z,96229.23
2018-08-07T01:47:00.981Z,96223.98
2018-08-07T01:49:28.314Z,96226.97
2018-08-07T01:51:55.607Z,96223.98
2018-08-07T01:54:22.908Z,96203.80
2018-08-07T01:56:50.251Z,96230.52
2018-08-07T01:59:17.568Z,96227.41
2018-08-07T02:01:45.980Z,96229.59
2018-08-07T02:04:13.189Z,96230.22
2018-08-07T02:06:40.490Z,96228.39
2018-08-07T02:09:08.359Z,96224.17
2018-08-07T02:11:35.717Z,96230.20
2018-08-07T02:14:03.061Z,96235.05
2018-08-07T02:16:30.394Z,96223.64
2018-08-07T02:18:57.678Z,96221.06
2018-08-07T02:21:24.997Z,96224.12
2018-08-07T02:23:52.361Z,96218.23
2018-08-07T02:26:19.604Z,96220.27
2018-08-07T02:28:46.911Z,96221.59
2018-08-07T02:31:14.218Z,96217.73
2018-08-07T02:33:41.489Z,96214.94
2018-08-07T02:36:08.787Z,96217.75
2018-08-07T02:38:36.039Z,96221.42
2018-08-07T02:41:03.359Z,96216.45
2018-08-07T02:43:30.758Z,96215.42
2018-08-07T02:45:58.057Z,96213.73
2018-08-07T02:48:25.352Z,96214.67
2018-08-07T02:50:52.743Z,96216.76
2018-08-07T02:53:20.076Z,96215.08
2018-08-07T02:55:47.371Z,96215.56
2018-08-07T02:58:14.631Z,96213.30
2018-08-07T03:00:43.221Z,96214.63
2018-08-07T03:03:10.499Z,96217.23
2018-08-07T03:05:37.878Z,96212.34
2018-08-07T03:08:06.075Z,96215.18
2018-08-07T03:10:33.452Z,96219.22
2018-08-07T03:13:00.813Z,96216.74
2018-08-07T03:15:28.172Z,96226.69
2018-08-07T03:17:55.542Z,96224.77
2018-08-07T03:20:22.851Z,96225.84
2018-08-07T03:22:50.161Z,96219.94
2018-08-07T03:25:17.463Z,96197.27
2018-08-07T03:27:45.341Z,96220.67
2018-08-07T03:30:14.310Z,96224.88
2018-08-07T03:32:41.736Z,96226.23
2018-08-07T03:35:09.380Z,96231.20
2018-08-07T03:37:37.575Z,96234.23
2018-08-07T03:40:07.259Z,96238.55
2018-08-07T03:42:34.592Z,96236.23
2018-08-07T03:45:01.858Z,96237.45
2018-08-07T03:47:29.198Z,96237.48
2018-08-07T03:49:56.465Z,96234.69
2018-08-07T03:52:23.773Z,96237.05
2018-08-07T03:54:51.033Z,96235.50
2018-08-07T03:57:18.370Z,96242.92
2018-08-07T03:59:45.700Z,96247.94
2018-08-07T04:02:12.974Z,96251.29
2018-08-07T04:04:40.274Z,96251.00
2018-08-07T04:07:07.463Z,96252.64
2018-08-07T04:09:34.770Z,96247.53
2018-08-07T04:12:02.013Z,96251.00
2018-08-07T04:14:29.298Z,96256.28
2018-08-07T04:16:56.633Z,96251.19
2018-08-07T04:19:26.185Z,96248.39
2018-08-07T04:21:53.947Z,96249.38
2018-08-07T04:24:21.239Z,96254.73
2018-08-07T04:26:48.584Z,96252.14
2018-08-07T04:29:15.946Z,96255.48
2018-08-07T04:31:43.322Z,96258.08
2018-08-07T04:34:10.545Z,96264.39
2018-08-07T04:36:37.851Z,96260.50
2018-08-07T04:39:07.571Z,96263.33
2018-08-07T04:41:35.038Z,96266.95
2018-08-07T04:44:02.567Z,96263.63
2018-08-07T04:46:29.770Z,96264.58
2018-08-07T04:48:57.232Z,96261.98
2018-08-07T04:51:24.605Z,96260.11
2018-08-07T04:53:51.912Z,96256.30
2018-08-07T04:56:19.181Z,96252.91
2018-08-07T04:58:46.513Z,96253.06
2018-08-07T05:01:13.809Z,96259.70
2018-08-07T05:03:41.074Z,96269.89
2018-08-07T05:06:08.376Z,96264.47
2018-08-07T05:08:35.655Z,96262.67
2018-08-07T05:11:03.034Z,96271.38
2018-08-07T05:13:30.394Z,96271.69
2018-08-07T05:15:57.685Z,96274.87
2018-08-07T05:18:25.014Z,96270.56
2018-08-07T05:20:52.288Z,96272.13
2018-08-07T05:23:19.620Z,96271.27
2018-08-07T05:25:46.886Z,96270.33
2018-08-07T05:28:14.097Z,96270.69
2018-08-07T05:30:41.463Z,96271.55
2018-08-07T05:33:08.789Z,96271.10
2018-08-07T05:35:36.100Z,96271.17
2018-08-07T05:38:03.456Z,96277.19
2018-08-07T05:40:30.813Z,96278.28
2018-08-07T05:42:58.037Z,96275.89
2018-08-07T05:45:25.355Z,96280.16
2018-08-07T05:47:52.633Z,96283.41
2018-08-07T05:50:20.856Z,96289.35
2018-08-07T05:52:48.110Z,96284.78
2018-08-07T05:55:15.579Z,96289.28
2018-08-07T05:57:42.826Z,96288.35
2018-08-07T06:00:13.234Z,96285.83
2018-08-07T06:02:40.464Z,96283.79
2018-08-07T06:05:08.196Z,96290.81
2018-08-07T06:07:35.501Z,96283.59
2018-08-07T06:10:03.176Z,96286.88
2018-08-07T06:12:30.505Z,96289.86
2018-08-07T06:14:57.810Z,96287.97
2018-08-07T06:17:25.134Z,96289.09
2018-08-07T06:19:52.385Z,96295.05
2018-08-07T06:22:19.678Z,96288.64
2018-08-07T06:24:46.990Z,96288.42
2018-08-07T06:27:14.359Z,96291.39
2018-08-07T06:29:41.698Z,96287.24
2018-08-07T06:32:09.010Z,96283.72
2018-08-07T06:34:36.308Z,96286.45
2018-08-07T06:37:03.684Z,96295.39
2018-08-07T06:39:31.115Z,96289.89
2018-08-07T06:41:58.625Z,96297.10
2018-08-07T06:44:25.931Z,96290.61
2018-08-07T06:46:53.327Z,96300.02
2018-08-07T06:49:20.712Z,96300.87
2018-08-07T06:51:48.001Z,96298.59
2018-08-07T06:54:15.239Z,96303.82
2018-08-07T06:56:42.569Z,96308.45
2018-08-07T06:59:09.910Z,96305.67
2018-08-07T07:01:37.669Z,96310.42
2018-08-07T07:04:05.102Z,96299.52
2018-08-07T07:06:32.382Z,96297.45
2018-08-07T07:08:59.613Z,96299.83
2018-08-07T07:11:26.917Z,96298.66
2018-08-07T07:13:54.198Z,96304.34
2018-08-07T07:16:21.537Z,96311.14
2018-08-07T07:18:48.817Z,96306.69
2018-08-07T07:21:16.085Z,96300.91
2018-08-07T07:23:43.406Z,96309.65
2018-08-07T07:26:10.701Z,96315.27
2018-08-07T07:28:37.973Z,96310.71
2018-08-07T07:31:05.423Z,96312.89
2018-08-07T07:33:32.717Z,96313.09
2018-08-07T07:36:00.007Z,96311.13
2018-08-07T07:38:27.333Z,96305.69
2018-08-07T07:40:54.563Z,96305.31
2018-08-07T07:43:21.996Z,96307.25
2018-08-07T07:45:49.428Z,96305.18
2018-08-07T07:48:16.681Z,96307.69
2018-08-07T07:50:43.942Z,96301.95
2018-08-07T07:53:11.269Z,96302.79
2018-08-07T07:55:38.565Z,96305.58
2018-08-07T07:58:06.084Z,96295.47
2018-08-07T08:00:33.406Z,96298.29
2018-08-07T08:03:00.688Z,96299.59
2018-08-07T08:05:28.076Z,96287.14
2018-08-07T08:07:55.690Z,96286.75
2018-08-07T08:10:23.008Z,96280.72
2018-08-07T08:12:50.303Z,96282.13
2018-08-07T08:15:18.133Z,96287.80
2018-08-07T08:17:46.256Z,96280.63
2018-08-07T08:20:18.591Z,96280.05
2018-08-07T08:22:46.348Z,96280.70
2018-08-07T08:25:13.604Z,96279.63
2018-08-07T08:27:40.979Z,96275.82
2018-08-07T08:30:15.841Z,96286.08
2018-08-07T08:32:43.732Z,96278.92
2018-08-07T08:35:12.796Z,96281.09
2018-08-07T08:37:40.438Z,96278.01
2018-08-07T08:40:10.223Z,96282.56
2018-08-07T08:42:38.315Z,96286.66
2018-08-07T08:45:08.565Z,96277.67
2018-08-07T08:47:35.894Z,96279.72
2018-08-07T08:50:04.008Z,96277.78
2018-08-07T08:52:31.314Z,96274.55
2018-08-07T08:54:58.587Z,96278.19
2018-08-07T08:57:25.965Z,96273.67
2018-08-07T08:59:53.349Z,96269.41
2018-08-07T09:02:20.803Z,96269.34
2018-08-07T09:04:49.860Z,96274.52
2018-08-07T09:07:17.207Z,96262.70
2018-08-07T09:09:45.244Z,96269.14
2018-08-07T09:12:13.154Z,96270.97
2018-08-07T09:14:40.479Z,96263.83
2018-08-07T09:17:07.784Z,96263.89
2018-08-07T09:19:35.111Z,96263.14
2018-08-07T09:22:02.441Z,96269.51
2018-08-07T09:24:29.693Z,96262.75
2018-08-07T09:26:56.990Z,96259.69
2018-08-07T09:29:24.281Z,96253.36
2018-08-07T09:31:51.708Z,96252.41
2018-08-07T09:34:18.997Z,96244.27
2018-08-07T09:36:46.378Z,96248.59
2018-08-07T09:39:13.708Z,96240.62
2018-08-07T09:41:41.046Z,96237.60
2018-08-07T09:44:08.772Z,96227.87
2018-08-07T09:46:36.257Z,96227.08
2018-08-07T09:49:03.912Z,96218.07
2018-08-07T09:51:31.289Z,96195.41
2018-08-07T09:53:58.705Z,96218.78
2018-08-07T09:56:26.061Z,96228.24
2018-08-07T09:58:53.390Z,96241.05
2018-08-07T10:01:26.523Z,96243.15
2018-08-07T10:03:53.791Z,96222.13
2018-08-07T10:06:21.141Z,96205.94
2018-08-07T10:08:48.386Z,96204.59
2018-08-07T10:11:15.779Z,96214.25
2018-08-07T10:13:43.197Z,96212.97
2018-08-07T10:16:10.600Z,96203.76
2018-08-07T10:20:02.499Z,96216.55
2018-08-07T10:22:29.822Z,96227.96
2018-08-07T10:24:57.125Z,96221.44
2018-08-07T10:27:24.406Z,96196.92
2018-08-07T10:29:51.635Z,96200.97
2018-08-07T10:32:18.988Z,96204.95
2018-08-07T10:34:46.313Z,96227.28
2018-08-07T10:37:13.620Z,96237.32
2018-08-07T10:39:40.928Z,96236.90
2018-08-07T10:42:08.256Z,96241.64
2018-08-07T10:44:35.624Z,96235.89
2018-08-07T10:47:02.981Z,96243.25
2018-08-07T10:49:30.303Z,96249.09
2018-08-07T10:51:57.623Z,96263.87
2018-08-07T10:54:24.951Z,96276.41
2018-08-07T10:56:52.365Z,96266.41
2018-08-07T10:59:19.907Z,96264.78
2018-08-07T11:01:47.377Z,96267.21
2018-08-07T11:04:16.131Z,96256.48
2018-08-07T11:06:43.492Z,96252.81
2018-08-07T11:09:10.777Z,96244.91
2018-08-07T11:11:38.096Z,96246.13
2018-08-07T11:14:05.554Z,96245.62
2018-08-07T11:16:33.075Z,96251.91
2018-08-07T11:19:00.408Z,96252.91
2018-08-07T11:21:27.786Z,96248.88
2018-08-07T11:23:55.016Z,96244.97
2018-08-07T11:26:22.320Z,96249.09
2018-08-07T11:28:49.683Z,96258.89
2018-08-07T11:31:16.979Z,96263.61
2018-08-07T11:33:44.289Z,96275.76
2018-08-07T11:36:11.611Z,96285.98
2018-08-07T11:38:39.044Z,96289.32
2018-08-07T11:41:06.384Z,96290.93
2018-08-07T11:43:33.646Z,96294.52
2018-08-07T11:46:00.970Z,96303.41
2018-08-07T11:48:28.287Z,96288.97
2018-08-07T11:50:55.662Z,96291.84
2018-08-07T11:53:22.943Z,96283.84
2018-08-07T11:55:50.368Z,96281.94
2018-08-07T11:58:17.624Z,96283.19
2018-08-07T12:00:45.017Z,96284.95
2018-08-07T12:03:12.332Z,96287.75
2018-08-07T12:05:39.653Z,96285.86
2018-08-07T12:08:07.467Z,96288.00
2018-08-07T12:10:35.021Z,96278.98
2018-08-07T12:13:02.325Z,96265.95
2018-08-07T12:15:29.567Z,96283.45
2018-08-07T12:17:56.897Z,96300.69
2018-08-07T12:20:24.145Z,96274.61
2018-08-07T12:22:51.526Z,96270.01
2018-08-07T12:25:19.468Z,96271.84
2018-08-07T12:27:46.831Z,96280.86
2018-08-07T12:30:18.321Z,96283.39
2018-08-07T12:32:45.713Z,96287.59
2018-08-07T12:35:13.178Z,96276.73
2018-08-07T12:37:40.437Z,96280.30
2018-08-07T12:40:11.282Z,96298.31
2018-08-07T12:42:38.651Z,96315.27
2018-08-07T12:45:06.121Z,96314.40
2018-08-07T12:47:33.771Z,96311.81
2018-08-07T12:50:01.129Z,96302.81
2018-08-07T12:52:28.403Z,96297.67
2018-08-07T12:54:55.901Z,96294.70
2018-08-07T12:57:23.204Z,96289.73
2018-08-07T12:59:50.460Z,96283.10
2018-08-07T13:02:17.780Z,96292.45
2018-08-07T13:04:45.136Z,96290.63
2018-08-07T13:07:12.342Z,96290.95
2018-08-07T13:09:39.652Z,96283.98
2018-08-07T13:12:07.053Z,96281.36
2018-08-07T13:14:34.404Z,96282.77
2018-08-07T13:17:01.721Z,96284.70
2018-08-07T13:19:29.004Z,96288.70
2018-08-07T13:21:56.278Z,96260.67
2018-08-07T13:24:23.681Z,96278.41
2018-08-07T13:26:50.989Z,96276.77
2018-08-07T13:29:18.230Z,96272.67
2018-08-07T13:31:45.632Z,96264.41
2018-08-07T13:34:12.947Z,96269.19
2018-08-07T13:36:40.319Z,96275.41
2018-08-07T13:39:08.768Z,96283.53
2018-08-07T13:41:36.129Z,96289.97
2018-08-07T13:44:04.379Z,96288.59
2018-08-07T13:46:31.666Z,96294.73
2018-08-07T13:48:58.997Z,96305.28
2018-08-07T13:51:26.374Z,96296.97
2018-08-07T13:53:53.668Z,96301.42
2018-08-07T13:56:21.036Z,96301.44
2018-08-07T13:58:48.411Z,96288.70
2018-08-07T14:01:15.797Z,96290.09
2018-08-07T14:03:43.031Z,96283.51
2018-08-07T14:06:10.263Z,96275.84
2018-08-07T14:08:37.591Z,96273.45
2018-08-07T14:11:04.979Z,96260.13
2018-08-07T14:13:32.318Z,96250.97
2018-08-07T14:15:59.654Z,96239.71
2018-08-07T14:18:26.988Z,96241.25
2018-08-07T14:20:54.268Z,96236.70
2018-08-07T14:23:21.628Z,96236.42
2018-08-07T14:25:48.959Z,96232.32
2018-08-07T14:28:16.361Z,96234.17
2018-08-07T14:30:43.739Z,96220.19
2018-08-07T14:33:11.082Z,96217.62
2018-08-07T14:35:38.374Z,96222.58
2018-08-07T14:38:05.768Z,96220.20
2018-08-07T14:40:33.091Z,96220.47
2018-08-07T14:43:00.369Z,96215.56
2018-08-07T14:45:28.440Z,96214.94
2018-08-07T14:47:56.352Z,96217.73
2018-08-07T14:50:25.515Z,96208.30
2018-08-07T14:52:52.960Z,96215.30
2018-08-07T14:55:20.286Z,96209.48
2018-08-07T14:57:47.606Z,96207.16
2018-08-07T15:00:17.339Z,96199.92
2018-08-07T15:02:45.068Z,96190.73
2018-08-07T15:05:12.496Z,96198.88
2018-08-07T15:07:39.800Z,96199.57
2018-08-07T15:10:10.373Z,96198.36
2018-08-07T15:12:37.612Z,96193.66
2018-08-07T15:15:07.694Z,96193.09
2018-08-07T15:17:34.974Z,96190.77
2018-08-07T15:20:02.346Z,96191.64
2018-08-07T15:22:29.593Z,96199.07
2018-08-07T15:24:56.882Z,96195.78
2018-08-07T15:27:24.121Z,96207.54
2018-08-07T15:29:51.411Z,96192.42
2018-08-07T15:32:18.720Z,96202.95
2018-08-07T15:34:46.028Z,96205.37
2018-08-07T15:37:13.359Z,96199.45
2018-08-07T15:39:40.677Z,96203.02
2018-08-07T15:42:08.966Z,96204.82
2018-08-07T15:44:36.320Z,96188.85
2018-08-07T15:47:03.593Z,96187.20
2018-08-07T15:49:30.828Z,96183.97
2018-08-07T15:51:58.123Z,96188.41
2018-08-07T15:54:25.451Z,96176.38
2018-08-07T15:56:52.846Z,96172.96
2018-08-07T15:59:20.120Z,96168.58
2018-08-07T16:01:48.096Z,96173.77
2018-08-07T16:04:15.371Z,96166.78
2018-08-07T16:06:42.682Z,96166.19
2018-08-07T16:09:10.408Z,96171.31
2018-08-07T16:11:37.858Z,96179.46
2018-08-07T16:14:05.291Z,96174.01
2018-08-07T16:16:32.585Z,96169.55
2018-08-07T16:18:59.873Z,96168.61
2018-08-07T16:21:27.207Z,96169.00
2018-08-07T16:23:54.506Z,96159.59
2018-08-07T16:26:21.843Z,96160.64
2018-08-07T16:28:49.125Z,96153.38
2018-08-07T16:31:16.480Z,96148.17
2018-08-07T16:33:43.760Z,96147.14
2018-08-07T16:36:11.140Z,96144.48
2018-08-07T16:38:38.416Z,96132.87
2018-08-07T16:42:30.395Z,96128.37
2018-08-07T16:44:58.013Z,96123.83
2018-08-07T16:47:25.246Z,96118.11
2018-08-07T16:49:52.538Z,96083.13
2018-08-07T16:52:19.853Z,96106.19
2018-08-07T16:54:47.211Z,96103.05
2018-08-07T16:57:14.483Z,96105.29
2018-08-07T16:59:41.755Z,96094.47
2018-08-07T17:02:09.082Z,96089.31
2018-08-07T17:04:36.426Z,96087.97
2018-08-07T17:07:03.785Z,96085.42
2018-08-07T17:09:31.033Z,96090.64
2018-08-07T17:11:58.359Z,96095.36
2018-08-07T17:14:25.682Z,96103.65
2018-08-07T17:16:52.932Z,96094.58
2018-08-07T17:19:20.353Z,96097.84
2018-08-07T17:21:47.683Z,96092.20
2018-08-07T17:24:14.923Z,96087.11
2018-08-07T17:26:42.293Z,96091.18
2018-08-07T17:29:09.607Z,96081.73
2018-08-07T17:31:36.956Z,96088.63
2018-08-07T17:34:04.575Z,96083.66
2018-08-07T17:36:31.846Z,96079.42
2018-08-07T17:38:59.203Z,96072.21
2018-08-07T17:41:26.460Z,96073.52
2018-08-07T17:43:53.755Z,96075.97
2018-08-07T17:46:20.998Z,96073.73
2018-08-07T17:48:48.273Z,96067.41
2018-08-07T17:51:15.556Z,96063.91
2018-08-07T17:53:42.908Z,96061.43
2018-08-07T17:56:10.253Z,96054.39
2018-08-07T17:58:37.519Z,96056.33
2018-08-07T18:01:04.840Z,96051.41
2018-08-07T18:03:32.207Z,96044.75
2018-08-07T18:05:59.476Z,96030.70
2018-08-07T18:08:26.789Z,96026.52
2018-08-07T18:10:54.062Z,96036.50
2018-08-07T18:13:21.423Z,96035.80
2018-08-07T18:15:48.724Z,96029.05
2018-08-07T18:18:16.035Z,96026.91
2018-08-07T18:20:43.345Z,96029.77
2018-08-07T18:23:10.656Z,96026.80
2018-08-07T18:25:38.054Z,96029.39
2018-08-07T18:28:05.359Z,96033.08
2018-08-07T18:30:32.677Z,96038.19
2018-08-07T18:32:59.933Z,96040.02
2018-08-07T18:35:27.339Z,96033.84
2018-08-07T18:37:54.687Z,96034.86
2018-08-07T18:40:21.989Z,96034.33
2018-08-07T18:42:49.523Z,96037.37
2018-08-07T18:45:16.850Z,96032.65
2018-08-07T18:47:44.707Z,96036.05
2018-08-07T18:50:13.536Z,96040.77
2018-08-07T18:52:40.867Z,96045.30
2018-08-07T18:55:10.179Z,96044.08
2018-08-07T18:57:37.888Z,96050.08
2018-08-07T19:00:07.441Z,96071.06
2018-08-07T19:02:34.796Z,96066.53
2018-08-07T19:05:02.111Z,96054.77
2018-08-07T19:07:29.405Z,96052.52
2018-08-07T19:09:56.715Z,96058.16
2018-08-07T19:12:24.091Z,96060.20
2018-08-07T19:14:51.290Z,96070.10
2018-08-07T19:17:18.698Z,96073.11
2018-08-07T19:19:45.999Z,96080.17
2018-08-07T19:22:13.339Z,96078.77
2018-08-07T19:24:40.646Z,96081.13
2018-08-07T19:27:08.016Z,96078.68
2018-08-07T19:29:35.341Z,96077.41
2018-08-07T19:32:02.683Z,96091.19
2018-08-07T19:34:30.001Z,96106.18
2018-08-07T19:36:57.494Z,96110.95
2018-08-07T19:39:24.891Z,96116.95
2018-08-07T19:41:52.199Z,96120.63
2018-08-07T19:44:19.817Z,96121.17
2018-08-07T19:46:47.103Z,96121.98
2018-08-07T19:49:14.409Z,96126.77
2018-08-07T19:51:41.697Z,96124.86
2018-08-07T19:54:09.012Z,96135.20
2018-08-07T19:56:36.341Z,96133.13
2018-08-07T19:59:03.661Z,96135.80
2018-08-07T20:01:30.957Z,96138.33
2018-08-07T20:03:58.288Z,96137.56
2018-08-07T20:06:25.636Z,96147.67
2018-08-07T20:08:52.983Z,96144.12
2018-08-07T20:11:20.273Z,96136.75
2018-08-07T20:13:47.682Z,96143.84
2018-08-07T20:16:15.051Z,96134.59
2018-08-07T20:18:42.340Z,96137.39
2018-08-07T20:21:09.837Z,96142.63
2018-08-07T20:23:37.176Z,96146.05
2018-08-07T20:26:04.964Z,96148.84
2018-08-07T20:28:32.267Z,96144.80
2018-08-07T20:30:59.613Z,96159.65
2018-08-07T20:33:26.928Z,96157.61
2018-08-07T20:35:54.232Z,96163.88
2018-08-07T20:38:21.687Z,96162.70
2018-08-07T20:40:48.994Z,96163.95
2018-08-07T20:43:16.326Z,96159.52
2018-08-07T20:45:43.569Z,96154.74
2018-08-07T20:48:10.887Z,96160.37
2018-08-07T20:50:38.184Z,96161.48
2018-08-07T20:53:05.490Z,96165.44
2018-08-07T20:55:32.793Z,96169.20
2018-08-07T20:58:00.082Z,96165.77
2018-08-07T21:00:27.997Z,96163.72
2018-08-07T21:02:55.414Z,96162.25
2018-08-07T21:05:23.024Z,96158.91
2018-08-07T21:07:50.549Z,96153.94
2018-08-07T21:10:22.558Z,96150.59
2018-08-07T21:12:50.020Z,96143.19
2018-08-07T21:15:17.256Z,96147.80
2018-08-07T21:17:44.582Z,96143.16
2018-08-07T21:20:14.358Z,96149.17
2018-08-07T21:22:41.679Z,96143.41
2018-08-07T21:25:11.006Z,96137.84
2018-08-07T21:27:38.459Z,96140.95
2018-08-07T21:30:08.440Z,96137.64
2018-08-07T21:32:35.718Z,96135.85
2018-08-07T21:35:03.424Z,96132.18
2018-08-07T21:37:30.745Z,96139.59
2018-08-07T21:39:58.079Z,96139.84
2018-08-07T21:42:25.404Z,96142.49
2018-08-07T21:44:52.627Z,96137.59
2018-08-07T21:47:20.165Z,96145.16
2018-08-07T21:49:47.419Z,96138.86
2018-08-07T21:52:14.747Z,96138.52
2018-08-07T21:54:42.014Z,96132.42
2018-08-07T21:57:09.379Z,96130.75
2018-08-07T21:59:36.635Z,96126.13
2018-08-07T22:02:04.081Z,96121.80
2018-08-07T22:04:31.631Z,96113.50
2018-08-07T22:06:58.865Z,96112.31
2018-08-07T22:09:26.167Z,96122.20
2018-08-07T22:11:53.489Z,96123.18
2018-08-07T22:14:20.773Z,96122.34
2018-08-07T22:16:48.095Z,96118.42
2018-08-07T22:19:15.412Z,96115.76
2018-08-07T22:21:42.769Z,96111.45
2018-08-07T22:24:10.070Z,96109.07
2018-08-07T22:26:43.088Z,96110.40
2018-08-07T22:29:10.450Z,96106.71
2018-08-07T22:31:37.957Z,96107.17
2018-08-07T22:34:05.705Z,96096.68
2018-08-07T22:36:32.960Z,96104.02
2018-08-07T22:39:01.011Z,96101.66
2018-08-07T22:41:28.306Z,96100.05
2018-08-07T22:46:27.810Z,96091.83
2018-08-07T22:48:55.112Z,96090.98
2018-08-07T22:51:22.378Z,96084.03
2018-08-07T22:53:49.617Z,96084.17
2018-08-07T22:56:17.947Z,96092.31
2018-08-07T22:58:45.252Z,96071.98
2018-08-07T23:01:12.567Z,96071.88
2018-08-07T23:03:39.850Z,96079.21
2018-08-07T23:06:07.355Z,96074.45
2018-08-07T23:08:34.632Z,96083.61
2018-08-07T23:11:01.906Z,96078.30
2018-08-07T23:13:29.222Z,96073.72
2018-08-07T23:15:56.464Z,96066.42
2018-08-07T23:18:23.796Z,96056.45
2018-08-07T23:20:51.083Z,96053.73
2018-08-07T23:23:18.357Z,96050.77
2018-08-07T23:25:45.573Z,96058.04
2018-08-07T23:28:12.837Z,96062.05
2018-08-07T23:30:40.118Z,96071.34
2018-08-07T23:33:07.590Z,96075.44
2018-08-07T23:35:34.894Z,96074.13
2018-08-07T23:38:02.396Z,96070.30
2018-08-07T23:40:29.664Z,96071.31
2018-08-07T23:42:57.071Z,96067.66
2018-08-07T23:45:24.413Z,96072.09
2018-08-07T23:47:51.622Z,96080.67
2018-08-07T23:50:18.942Z,96073.25
2018-08-07T23:52:46.196Z,96058.77
2018-08-07T23:55:13.562Z,96053.98
2018-08-07T23:57:40.796Z,96055.83
